Time;durP1;ratioP1;P1;durP2;ratioP2;P2;SDS_P1;SDS_P2;PMS_P1;PMS_P2;Temp;Humidity;BMP_temperature;BMP_pressure;BME280_temperature;BME280_humidity;BME280_pressure;Samples;Min_cycle;Max_cycle;Signal;HPM_P1;HPM_P2
2021/11/24 00:02:08;;;;;;;0.80;0.50;;;21.10;60.50;;;;;;6188240;23;20436;-71
2021/11/24 00:04:34;;;;;;;2.65;0.30;;;21.10;60.50;;;;;;6214551;23;20005;-71
2021/11/24 00:06:59;;;;;;;0.85;0.30;;;21.00;60.50;;;;;;6214029;23;20044;-71
2021/11/24 00:09:25;;;;;;;2.05;0.35;;;21.10;60.60;;;;;;6163571;23;20027;-71
2021/11/24 00:11:51;;;;;;;0.63;0.30;;;21.10;60.60;;;;;;6214485;23;20348;-71
2021/11/24 00:14:16;;;;;;;2.30;0.40;;;21.00;60.50;;;;;;6214614;23;20008;-71
2021/11/24 00:16:42;;;;;;;0.98;0.20;;;21.10;60.60;;;;;;6188150;23;20001;-71
2021/11/24 00:19:08;;;;;;;0.70;0.38;;;21.10;60.60;;;;;;6214569;23;20379;-70
2021/11/24 00:21:33;;;;;;;0.43;0.25;;;21.10;60.70;;;;;;6162843;23;20001;-70
2021/11/24 00:23:59;;;;;;;0.25;0.10;;;21.10;60.70;;;;;;6214299;23;20383;-70
2021/11/24 00:26:24;;;;;;;1.30;0.20;;;21.10;60.70;;;;;;6214249;23;20020;-71
2021/11/24 00:28:50;;;;;;;3.83;0.30;;;21.10;60.70;;;;;;6163316;23;19997;-71
2021/11/24 00:31:16;;;;;;;0.63;0.22;;;21.10;60.70;;;;;;6214523;23;20000;-71
2021/11/24 00:33:41;;;;;;;0.20;0.13;;;21.10;60.80;;;;;;6214415;23;20028;-71
2021/11/24 00:36:07;;;;;;;0.30;0.20;;;21.10;60.90;;;;;;6214062;23;20031;-71
2021/11/24 00:38:32;;;;;;;0.38;0.22;;;21.10;60.90;;;;;;6187973;23;20008;-71
2021/11/24 00:40:58;;;;;;;4.55;0.20;;;21.10;60.90;;;;;;6187935;23;20009;-71
2021/11/24 00:43:24;;;;;;;1.55;0.20;;;21.10;60.90;;;;;;6187969;23;20004;-71
2021/11/24 00:45:50;;;;;;;0.98;0.28;;;21.10;60.90;;;;;;6187833;23;20080;-71
2021/11/24 00:48:15;;;;;;;0.93;0.20;;;21.10;61.00;;;;;;6187846;23;20000;-71
2021/11/24 00:50:41;;;;;;;1.15;0.30;;;21.10;61.00;;;;;;6214047;23;20012;-71
2021/11/24 00:53:06;;;;;;;0.50;0.20;;;21.10;61.00;;;;;;6187751;23;20008;-71
2021/11/24 00:55:32;;;;;;;0.20;0.17;;;21.10;61.10;;;;;;6187987;23;20104;-71
2021/11/24 00:57:58;;;;;;;0.77;0.28;;;21.10;61.10;;;;;;6215744;23;20026;-71
2021/11/24 01:00:24;;;;;;;0.95;0.32;;;21.10;61.10;;;;;;6216362;23;20001;-71
2021/11/24 01:02:49;;;;;;;0.70;0.15;;;21.10;61.10;;;;;;6165056;23;20376;-71
2021/11/24 01:05:15;;;;;;;0.70;0.30;;;21.10;61.10;;;;;;6189355;23;20070;-71
2021/11/24 01:07:41;;;;;;;0.55;0.45;;;21.10;61.20;;;;;;6216309;23;20005;-71
2021/11/24 01:10:07;;;;;;;1.08;0.20;;;21.10;61.20;;;;;;6189824;23;20055;-71
2021/11/24 01:12:32;;;;;;;1.17;0.47;;;21.10;61.20;;;;;;6190042;23;19997;-71
2021/11/24 01:14:58;;;;;;;1.02;0.40;;;21.10;61.30;;;;;;6189585;23;20008;-71
2021/11/24 01:17:24;;;;;;;0.77;0.30;;;21.10;61.30;;;;;;6189888;23;20035;-71
2021/11/24 01:19:49;;;;;;;1.02;0.20;;;21.10;61.30;;;;;;6215637;23;20012;-71
2021/11/24 01:22:15;;;;;;;0.30;0.20;;;21.10;61.30;;;;;;6189740;23;20048;-71
2021/11/24 01:24:41;;;;;;;0.73;0.20;;;21.10;61.30;;;;;;6216088;23;20470;-71
2021/11/24 01:27:06;;;;;;;1.30;0.20;;;21.10;61.40;;;;;;6189272;23;20040;-71
2021/11/24 01:29:32;;;;;;;1.30;0.30;;;21.10;61.40;;;;;;6189683;23;19997;-71
2021/11/24 01:31:58;;;;;;;0.85;0.30;;;21.10;61.40;;;;;;6215931;23;20009;-71
2021/11/24 01:34:23;;;;;;;0.52;0.30;;;21.10;61.40;;;;;;6215621;23;20005;-71
2021/11/24 01:36:49;;;;;;;5.97;0.50;;;21.10;61.50;;;;;;6215940;23;20055;-71
2021/11/24 01:39:14;;;;;;;0.30;0.17;;;21.10;61.50;;;;;;6189576;23;20001;-71
2021/11/24 01:41:40;;;;;;;0.75;0.22;;;21.10;61.50;;;;;;6189566;23;20000;-71
2021/11/24 01:44:06;;;;;;;2.45;0.30;;;21.10;61.50;;;;;;6215668;23;20004;-71
2021/11/24 01:46:31;;;;;;;0.73;0.20;;;21.10;61.60;;;;;;6189562;23;20004;-71
2021/11/24 01:48:57;;;;;;;0.38;0.20;;;21.10;61.60;;;;;;6188942;23;20000;-70
2021/11/24 01:51:23;;;;;;;1.75;0.20;;;21.10;61.60;;;;;;6189486;23;20024;-71
2021/11/24 01:53:48;;;;;;;0.20;0.20;;;21.10;61.60;;;;;;6215936;23;20452;-71
2021/11/24 01:56:14;;;;;;;0.17;0.10;;;21.10;61.70;;;;;;6189455;23;20028;-71
2021/11/24 01:58:40;;;;;;;0.20;0.20;;;21.10;61.70;;;;;;6188566;23;20005;-71
2021/11/24 02:01:05;;;;;;;1.00;0.20;;;21.10;61.70;;;;;;6164420;23;20001;-71
2021/11/24 02:03:31;;;;;;;0.28;0.13;;;21.10;61.70;;;;;;6164295;23;20015;-71
2021/11/24 02:05:57;;;;;;;0.45;0.10;;;21.10;61.70;;;;;;6188436;23;20020;-71
2021/11/24 02:08:23;;;;;;;0.57;0.20;;;21.10;61.80;;;;;;6188547;23;20009;-71
2021/11/24 02:10:49;;;;;;;3.72;0.30;;;21.10;61.80;;;;;;6215653;23;20471;-71
2021/11/24 02:13:14;;;;;;;0.43;0.38;;;21.10;61.80;;;;;;6188884;23;20032;-71
2021/11/24 02:15:40;;;;;;;0.38;0.38;;;21.10;61.80;;;;;;6215558;23;20030;-71
2021/11/24 02:18:06;;;;;;;0.70;0.25;;;21.10;61.90;;;;;;6188557;23;20004;-71
2021/11/24 02:20:42;;;;;;;0.60;0.20;;;21.10;61.90;;;;;;6189003;23;20012;-71
2021/11/24 02:23:09;;;;;;;1.45;0.28;;;21.10;61.90;;;;;;6188995;23;20443;-70
2021/11/24 02:25:34;;;;;;;0.40;0.20;;;21.10;61.90;;;;;;6164479;23;20504;-71
2021/11/24 02:28:00;;;;;;;0.98;0.30;;;21.10;62.00;;;;;;6188634;23;20035;-71
2021/11/24 02:30:26;;;;;;;0.40;0.32;;;21.10;61.90;;;;;;6164244;23;20491;-71
2021/11/24 02:32:52;;;;;;;0.40;0.13;;;21.10;62.00;;;;;;6188628;23;20001;-71
2021/11/24 02:35:17;;;;;;;0.20;0.20;;;21.10;62.00;;;;;;6164237;23;20004;-70
2021/11/24 02:37:43;;;;;;;0.52;0.30;;;21.10;62.00;;;;;;6215191;23;20020;-70
2021/11/24 02:40:09;;;;;;;1.02;0.30;;;21.10;62.00;;;;;;6215289;23;20440;-70
2021/11/24 02:42:39;;;;;;;0.75;0.65;;;21.10;62.00;;;;;;6215592;23;20001;-71
2021/11/24 02:45:05;;;;;;;2.58;0.30;;;21.10;62.00;;;;;;6163894;23;20012;-71
2021/11/24 02:47:31;;;;;;;1.23;0.22;;;21.10;62.10;;;;;;6163671;23;20175;-71
2021/11/24 02:50:00;;;;;;;0.70;0.30;;;21.10;62.10;;;;;;6215228;23;20035;-71
2021/11/24 02:52:25;;;;;;;2.70;0.47;;;21.00;62.00;;;;;;6189209;23;20000;-71
2021/11/24 02:54:55;;;;;;;0.45;0.25;;;21.10;62.20;;;;;;6214779;23;20383;-71
2021/11/24 02:57:36;;;;;;;0.75;0.20;;;21.00;62.10;;;;;;6188078;23;20462;-71
2021/11/24 03:00:26;;;;;;;0.32;0.20;;;21.10;62.20;;;;;;6190132;23;20015;-71
2021/11/24 03:02:51;;;;;;;0.30;0.10;;;21.10;63.20;;;;;;6173765;23;20013;-71
2021/11/24 03:05:21;;;;;;;0.93;0.30;;;21.00;62.20;;;;;;6188448;23;20325;-71
2021/11/24 03:07:46;;;;;;;3.15;0.45;;;21.10;62.30;;;;;;6188675;23;20043;-70
2021/11/24 03:10:12;;;;;;;1.27;0.30;;;21.00;62.20;;;;;;6215020;23;20001;-71
2021/11/24 03:12:38;;;;;;;0.45;0.20;;;21.10;62.30;;;;;;6188838;23;20001;-71
2021/11/24 03:15:04;;;;;;;0.70;0.40;;;21.00;62.30;;;;;;6188168;23;20040;-71
2021/11/24 03:17:30;;;;;;;0.40;0.20;;;21.10;62.30;;;;;;6215409;23;20036;-71
2021/11/24 03:19:57;;;;;;;0.30;0.13;;;21.10;62.30;;;;;;6188433;23;20321;-71
2021/11/24 03:22:23;;;;;;;0.40;0.10;;;21.10;62.30;;;;;;6214897;23;20076;-71
2021/11/24 03:24:56;;;;;;;0.95;0.50;;;21.10;62.30;;;;;;6139134;23;20004;-70
2021/11/24 03:27:30;;;;;;;0.50;0.20;;;21.10;62.30;;;;;;6164956;23;20066;-70
2021/11/24 03:29:56;;;;;;;1.55;0.40;;;21.10;62.40;;;;;;6164580;23;20031;-70
2021/11/24 03:32:21;;;;;;;2.90;0.20;;;21.10;62.40;;;;;;6188468;23;20001;-70
2021/11/24 03:34:47;;;;;;;1.10;0.25;;;21.10;62.40;;;;;;6163722;23;20317;-70
2021/11/24 03:37:13;;;;;;;0.32;0.25;;;21.00;62.40;;;;;;6214791;23;20001;-70
2021/11/24 03:39:40;;;;;;;1.13;0.20;;;21.00;62.40;;;;;;6164258;23;20021;-70
2021/11/24 03:42:06;;;;;;;0.50;0.20;;;21.00;62.50;;;;;;6188573;23;20336;-70
2021/11/24 03:44:31;;;;;;;1.90;0.43;;;21.10;62.50;;;;;;6214291;23;20062;-70
2021/11/24 03:46:57;;;;;;;1.15;0.32;;;21.00;62.40;;;;;;6188284;23;20008;-71
2021/11/24 03:49:22;;;;;;;0.82;0.30;;;21.10;62.50;;;;;;6214749;23;20031;-71
2021/11/24 03:51:49;;;;;;;1.38;0.32;;;21.00;62.50;;;;;;6188260;23;20007;-71
2021/11/24 03:54:15;;;;;;;0.43;0.20;;;21.00;62.50;;;;;;6188111;23;20000;-71
2021/11/24 03:56:40;;;;;;;0.55;0.28;;;21.00;62.50;;;;;;6214924;23;20071;-71
2021/11/24 03:59:06;;;;;;;0.30;0.30;;;21.00;62.60;;;;;;6187716;23;20011;-71
2021/11/24 04:01:31;;;;;;;1.38;0.28;;;21.00;62.50;;;;;;6188090;23;20451;-71
2021/11/24 04:03:57;;;;;;;0.40;0.20;;;21.00;62.50;;;;;;6214645;23;20001;-71
2021/11/24 04:06:25;;;;;;;0.77;0.20;;;21.00;62.50;;;;;;6188120;23;19996;-71
2021/11/24 04:08:51;;;;;;;0.40;0.17;;;21.00;62.60;;;;;;6214710;23;19996;-71
2021/11/24 04:11:17;;;;;;;4.35;0.45;;;21.00;62.60;;;;;;6188165;23;20012;-71
2021/11/24 04:13:42;;;;;;;0.77;0.20;;;21.00;62.60;;;;;;6214151;23;20028;-71
2021/11/24 04:16:08;;;;;;;0.73;0.20;;;21.00;62.70;;;;;;6214445;23;20004;-71
2021/11/24 04:18:33;;;;;;;0.50;0.20;;;21.00;62.70;;;;;;6188073;23;20004;-71
2021/11/24 04:20:59;;;;;;;0.73;0.20;;;21.00;62.70;;;;;;6214556;23;20058;-71
2021/11/24 04:23:25;;;;;;;0.70;0.30;;;21.00;62.70;;;;;;6214330;23;20005;-71
2021/11/24 04:25:50;;;;;;;1.27;0.40;;;21.00;62.70;;;;;;6214194;23;20001;-71
2021/11/24 04:28:16;;;;;;;2.70;0.47;;;21.00;62.70;;;;;;6187612;23;20455;-71
2021/11/24 04:30:42;;;;;;;1.20;0.30;;;21.00;62.70;;;;;;6214657;23;20054;-71
2021/11/24 04:33:07;;;;;;;0.20;0.20;;;21.00;62.70;;;;;;6217544;23;20436;-71
2021/11/24 04:35:33;;;;;;;0.45;0.35;;;21.00;62.70;;;;;;6217764;23;20000;-71
2021/11/24 04:37:59;;;;;;;0.40;0.10;;;21.00;62.70;;;;;;6217937;23;20012;-71
2021/11/24 04:40:24;;;;;;;0.98;0.20;;;21.00;62.70;;;;;;6217640;23;20352;-71
2021/11/24 04:42:52;;;;;;;1.27;0.40;;;21.00;62.70;;;;;;6217529;23;20004;-71
2021/11/24 04:45:17;;;;;;;0.73;0.20;;;21.00;62.70;;;;;;6191441;23;20400;-71
2021/11/24 04:47:43;;;;;;;0.93;0.50;;;21.00;62.80;;;;;;6217796;23;20020;-72
2021/11/24 04:50:09;;;;;;;0.63;0.20;;;21.00;62.80;;;;;;6191236;23;20001;-72
2021/11/24 04:52:35;;;;;;;0.22;0.15;;;21.00;62.70;;;;;;6166862;23;19997;-71
2021/11/24 04:55:01;;;;;;;0.38;0.30;;;21.00;62.70;;;;;;6166549;23;20008;-72
2021/11/24 04:57:27;;;;;;;1.33;0.40;;;21.00;62.70;;;;;;6166099;23;20004;-72
2021/11/24 04:59:52;;;;;;;1.20;0.40;;;21.00;62.80;;;;;;6217646;23;20344;-71
2021/11/24 05:02:18;;;;;;;0.30;0.30;;;21.00;62.70;;;;;;6191133;23;20455;-71
2021/11/24 05:04:44;;;;;;;1.65;0.20;;;21.00;62.70;;;;;;6217692;23;20000;-72
2021/11/24 05:07:10;;;;;;;0.57;0.20;;;21.00;62.70;;;;;;6217596;23;20076;-71
2021/11/24 05:09:36;;;;;;;2.05;0.30;;;21.00;62.80;;;;;;6191389;23;20020;-71
2021/11/24 05:12:04;;;;;;;1.10;0.40;;;21.00;62.80;;;;;;6217423;23;20004;-71
2021/11/24 05:14:34;;;;;;;0.52;0.13;;;21.00;62.80;;;;;;6191607;23;20092;-70
2021/11/24 05:17:02;;;;;;;0.63;0.30;;;21.00;62.80;;;;;;6217984;23;20001;-70
2021/11/24 05:19:30;;;;;;;1.15;0.20;;;21.00;62.90;;;;;;6191664;23;20008;-71
2021/11/24 05:21:55;;;;;;;1.85;0.40;;;21.00;62.90;;;;;;6217706;23;20510;-71
2021/11/24 05:24:21;;;;;;;0.82;0.50;;;21.00;62.90;;;;;;6217246;23;20000;-71
2021/11/24 05:26:47;;;;;;;0.20;0.20;;;21.00;62.90;;;;;;6190732;23;20351;-71
2021/11/24 05:29:13;;;;;;;1.92;0.40;;;21.00;63.00;;;;;;6217436;23;20008;-71
2021/11/24 05:31:39;;;;;;;0.70;0.40;;;21.00;62.90;;;;;;6191093;23;20066;-71
2021/11/24 05:34:04;;;;;;;2.35;0.43;;;21.00;62.90;;;;;;6217686;23;20012;-71
2021/11/24 05:36:30;;;;;;;0.43;0.28;;;21.00;63.00;;;;;;6191016;23;20507;-71
2021/11/24 05:38:56;;;;;;;5.38;0.30;;;21.00;63.00;;;;;;6166461;23;20005;-71
2021/11/24 05:41:21;;;;;;;0.93;0.30;;;21.00;63.00;;;;;;6217045;23;20356;-71
2021/11/24 05:43:48;;;;;;;0.28;0.20;;;21.00;63.00;;;;;;6215784;23;20000;-71
2021/11/24 05:46:16;;;;;;;0.63;0.28;;;21.00;63.00;;;;;;6189536;23;20007;-71
2021/11/24 05:48:45;;;;;;;0.77;0.40;;;21.00;63.00;;;;;;6165639;23;20067;-71
2021/11/24 05:51:11;;;;;;;0.60;0.43;;;21.00;63.00;;;;;;6164708;23;20007;-71
2021/11/24 05:53:36;;;;;;;0.45;0.25;;;21.00;63.10;;;;;;6189319;23;20000;-70
2021/11/24 05:56:02;;;;;;;0.55;0.25;;;21.00;63.00;;;;;;6215514;23;20467;-71
2021/11/24 05:58:28;;;;;;;0.50;0.40;;;21.00;63.00;;;;;;6189175;23;20340;-71
2021/11/24 06:00:54;;;;;;;0.40;0.20;;;21.00;63.10;;;;;;6215779;23;20000;-71
2021/11/24 06:03:20;;;;;;;0.73;0.20;;;21.00;63.10;;;;;;6189327;23;20001;-71
2021/11/24 06:05:45;;;;;;;0.20;0.20;;;21.00;63.00;;;;;;6215636;23;20004;-70
2021/11/24 06:08:11;;;;;;;0.32;0.20;;;21.00;63.10;;;;;;6215723;23;20004;-71
2021/11/24 06:10:37;;;;;;;0.52;0.20;;;21.00;63.10;;;;;;6188826;23;20004;-71
2021/11/24 06:13:02;;;;;;;0.15;0.15;;;21.00;63.10;;;;;;6215768;23;20007;-71
2021/11/24 06:15:29;;;;;;;1.27;0.30;;;21.00;63.10;;;;;;6189254;23;20440;-70
2021/11/24 06:17:56;;;;;;;1.00;0.30;;;21.00;63.10;;;;;;6215593;23;20000;-70
2021/11/24 06:20:22;;;;;;;0.63;0.25;;;21.00;63.10;;;;;;6215570;23;20005;-70
2021/11/24 06:22:48;;;;;;;0.52;0.20;;;21.00;63.10;;;;;;6189280;23;20011;-71
2021/11/24 06:25:13;;;;;;;0.55;0.30;;;21.00;63.10;;;;;;6188623;23;20008;-71
2021/11/24 06:27:41;;;;;;;0.65;0.25;;;21.00;63.10;;;;;;6183952;23;20349;-71
2021/11/24 06:30:07;;;;;;;0.77;0.40;;;21.00;63.10;;;;;;6184120;23;20009;-71
2021/11/24 06:32:33;;;;;;;0.17;0.10;;;21.00;63.20;;;;;;6183905;23;20005;-71
2021/11/24 06:34:59;;;;;;;0.43;0.20;;;20.90;63.10;;;;;;6185539;23;20077;-71
2021/11/24 06:37:24;;;;;;;0.22;0.20;;;21.00;63.20;;;;;;6184015;23;20493;-71
2021/11/24 06:39:50;;;;;;;1.83;0.30;;;21.00;63.20;;;;;;6183568;23;20009;-71
2021/11/24 06:42:16;;;;;;;1.38;0.22;;;21.00;63.20;;;;;;6185180;23;20001;-71
2021/11/24 06:44:41;;;;;;;2.20;0.40;;;20.90;63.10;;;;;;6159101;23;20012;-71
2021/11/24 06:47:07;;;;;;;1.52;0.30;;;21.00;63.20;;;;;;6184000;23;20047;-71
2021/11/24 06:49:33;;;;;;;0.30;0.20;;;21.00;63.20;;;;;;6183746;23;20007;-71
2021/11/24 06:51:58;;;;;;;0.25;0.17;;;21.00;63.20;;;;;;6185473;23;19997;-71
2021/11/24 06:54:24;;;;;;;0.10;0.10;;;20.90;63.20;;;;;;6158330;23;20012;-71
2021/11/24 06:56:49;;;;;;;0.15;0.13;;;21.00;63.30;;;;;;6185431;23;20032;-71
2021/11/24 06:59:15;;;;;;;0.88;0.30;;;21.00;63.30;;;;;;6185158;23;20067;-71
2021/11/24 07:01:41;;;;;;;0.43;0.30;;;20.90;63.20;;;;;;6159053;23;20016;-71
2021/11/24 07:04:06;;;;;;;0.20;0.20;;;21.00;63.30;;;;;;6185287;23;20338;-71
2021/11/24 07:06:32;;;;;;;1.75;0.20;;;21.00;63.20;;;;;;6183072;23;20008;-71
2021/11/24 07:08:58;;;;;;;1.13;0.30;;;21.00;63.30;;;;;;6183662;23;20072;-71
2021/11/24 07:11:28;;;;;;;0.10;0.10;;;20.90;63.30;;;;;;6185190;23;20025;-71
2021/11/24 07:13:54;;;;;;;1.67;0.30;;;21.00;63.40;;;;;;6184106;23;20012;-72
2021/11/24 07:16:20;;;;;;;0.60;0.30;;;21.00;63.40;;;;;;6183793;23;20009;-72
2021/11/24 07:18:45;;;;;;;1.17;0.20;;;21.00;63.20;;;;;;6185728;23;20005;-72
2021/11/24 07:21:11;;;;;;;1.02;0.40;;;20.90;63.10;;;;;;6159136;23;20009;-72
2021/11/24 07:23:36;;;;;;;0.20;0.20;;;20.90;63.10;;;;;;6183189;23;20001;-72
2021/11/24 07:26:02;;;;;;;0.50;0.22;;;20.90;63.00;;;;;;6188802;23;20001;-72
2021/11/24 07:28:28;;;;;;;0.50;0.40;;;20.80;63.00;;;;;;6188927;23;20001;-72
2021/11/24 07:30:53;;;;;;;0.77;0.47;;;20.80;63.10;;;;;;6188861;23;20314;-72
2021/11/24 07:33:19;;;;;;;0.50;0.32;;;20.80;63.00;;;;;;6215021;23;19997;-72
2021/11/24 07:35:45;;;;;;;0.20;0.20;;;20.80;63.00;;;;;;6189094;23;20032;-71
2021/11/24 07:38:10;;;;;;;0.40;0.30;;;20.80;63.00;;;;;;6215147;23;20087;-71
2021/11/24 07:40:36;;;;;;;0.25;0.25;;;20.70;62.90;;;;;;6187879;23;20004;-71
2021/11/24 07:43:01;;;;;;;0.50;0.20;;;20.70;62.90;;;;;;6214785;23;20004;-71
2021/11/24 07:45:27;;;;;;;0.40;0.30;;;20.70;62.90;;;;;;6188191;23;20007;-71
2021/11/24 07:47:53;;;;;;;0.20;0.20;;;20.70;62.80;;;;;;6214785;23;20001;-72
2021/11/24 07:50:18;;;;;;;0.32;0.20;;;20.70;62.80;;;;;;6214603;23;20070;-71
2021/11/24 07:52:44;;;;;;;2.25;0.77;;;20.70;62.70;;;;;;6212346;23;20001;-71
2021/11/24 07:55:09;;;;;;;8.40;1.13;;;20.60;62.70;;;;;;6214566;23;20079;-71
2021/11/24 07:57:35;;;;;;;3.78;1.42;;;20.70;62.80;;;;;;6214630;23;20000;-71
2021/11/24 08:00:02;;;;;;;4.88;1.08;;;20.70;62.70;;;;;;6214774;23;20340;-71
2021/11/24 08:02:27;;;;;;;3.25;0.88;;;20.70;62.60;;;;;;6188123;23;20008;-71
2021/11/24 08:04:53;;;;;;;4.78;1.05;;;20.70;62.60;;;;;;6214639;23;20377;-71
2021/11/24 08:07:19;;;;;;;5.88;1.15;;;20.70;62.60;;;;;;6213889;23;20011;-71
2021/11/24 08:09:44;;;;;;;7.85;1.52;;;20.60;62.50;;;;;;6188040;23;20001;-71
2021/11/24 08:12:10;;;;;;;7.40;1.60;;;20.60;62.50;;;;;;6214702;23;20069;-71
2021/11/24 08:14:36;;;;;;;3.92;0.98;;;20.60;62.50;;;;;;6188116;23;20005;-71
2021/11/24 08:17:03;;;;;;;6.72;1.45;;;20.70;62.50;;;;;;6214575;23;20072;-71
2021/11/24 08:19:29;;;;;;;2.90;1.15;;;20.60;62.50;;;;;;6214140;23;20007;-71
2021/11/24 08:21:55;;;;;;;2.90;1.17;;;20.60;62.50;;;;;;6214432;23;20156;-72
2021/11/24 08:24:22;;;;;;;3.33;1.20;;;20.70;62.50;;;;;;6214374;23;20005;-72
2021/11/24 08:26:47;;;;;;;4.35;1.30;;;20.60;62.40;;;;;;6214270;23;20479;-72
2021/11/24 08:29:13;;;;;;;3.92;1.27;;;20.60;62.40;;;;;;6214585;23;20000;-72
2021/11/24 08:31:40;;;;;;;3.75;1.10;;;20.60;62.30;;;;;;6187970;23;19997;-71
2021/11/24 08:34:07;;;;;;;4.40;0.98;;;20.70;62.50;;;;;;6187979;23;20025;-71
2021/11/24 08:36:32;;;;;;;4.85;1.40;;;20.70;62.30;;;;;;6214347;23;20016;-71
2021/11/24 08:38:58;;;;;;;3.53;1.17;;;20.70;62.30;;;;;;6163221;23;20004;-71
2021/11/24 08:41:24;;;;;;;3.72;1.15;;;20.70;62.30;;;;;;6188123;23;20344;-71
2021/11/24 08:43:49;;;;;;;2.17;0.98;;;20.60;62.20;;;;;;6187859;23;20008;-71
2021/11/24 08:46:15;;;;;;;2.60;1.00;;;20.60;62.10;;;;;;6188037;23;20001;-71
2021/11/24 08:48:41;;;;;;;3.15;1.20;;;20.60;62.10;;;;;;6138052;23;20000;-71
2021/11/24 08:51:06;;;;;;;2.60;1.23;;;20.60;62.10;;;;;;6214789;23;19997;-71
2021/11/24 08:53:32;;;;;;;3.75;1.20;;;20.60;62.10;;;;;;6187953;23;20008;-71
2021/11/24 08:55:58;;;;;;;3.38;1.05;;;20.60;62.10;;;;;;6214313;23;20001;-71
2021/11/24 08:58:23;;;;;;;3.63;1.20;;;20.60;62.10;;;;;;6214369;23;19997;-71
2021/11/24 09:00:49;;;;;;;3.03;1.00;;;20.60;62.00;;;;;;6187945;23;20051;-71
2021/11/24 09:03:15;;;;;;;2.05;0.80;;;20.70;62.00;;;;;;6187586;23;20001;-71
2021/11/24 09:05:41;;;;;;;3.55;1.23;;;20.60;62.00;;;;;;6214095;23;20470;-71
2021/11/24 09:08:06;;;;;;;1.88;0.88;;;20.60;62.00;;;;;;6214391;23;19997;-71
2021/11/24 09:10:32;;;;;;;4.10;1.10;;;20.60;62.00;;;;;;6163028;23;20012;-71
2021/11/24 09:12:58;;;;;;;2.13;0.90;;;20.60;61.90;;;;;;6214293;23;20011;-71
2021/11/24 09:15:24;;;;;;;1.92;0.80;;;20.60;61.90;;;;;;6188121;23;20011;-71
2021/11/24 09:17:50;;;;;;;2.63;0.90;;;20.60;61.90;;;;;;6214275;23;20083;-71
2021/11/24 09:20:16;;;;;;;3.33;1.50;;;20.60;61.90;;;;;;6189635;23;20005;-72
2021/11/24 09:22:46;;;;;;;2.90;0.93;;;20.60;61.90;;;;;;6189562;23;20008;-71
2021/11/24 09:25:15;;;;;;;2.60;1.10;;;20.60;61.80;;;;;;6166726;23;20028;-71
2021/11/24 09:27:47;;;;;;;1.60;1.02;;;20.60;61.80;;;;;;6189904;23;20020;-71
2021/11/24 09:30:12;;;;;;;2.65;1.10;;;20.60;61.80;;;;;;6191008;23;19999;-71
2021/11/24 09:32:38;;;;;;;3.55;0.90;;;20.60;61.80;;;;;;6164344;23;20000;-71
2021/11/24 09:35:04;;;;;;;2.47;0.82;;;20.60;61.70;;;;;;6189665;23;20028;-71
2021/11/24 09:37:30;;;;;;;2.03;0.95;;;20.60;61.70;;;;;;6216051;23;20004;-71
2021/11/24 09:39:56;;;;;;;2.30;1.00;;;20.60;61.70;;;;;;6216122;23;20028;-71
2021/11/24 09:42:22;;;;;;;3.80;0.98;;;20.60;61.70;;;;;;6215911;23;20000;-71
2021/11/24 09:44:48;;;;;;;1.58;0.85;;;20.60;61.60;;;;;;6189366;23;20007;-71
2021/11/24 09:47:14;;;;;;;1.90;0.90;;;20.60;61.60;;;;;;6164400;23;20001;-71
2021/11/24 09:49:39;;;;;;;4.13;1.30;;;20.60;61.60;;;;;;6164544;23;20123;-71
2021/11/24 09:52:06;;;;;;;0.95;0.80;;;20.60;61.60;;;;;;6189466;23;20003;-71
2021/11/24 09:54:32;;;;;;;2.05;0.90;;;20.60;61.60;;;;;;6164531;23;20009;-71
2021/11/24 09:56:57;;;;;;;1.52;0.80;;;20.60;61.50;;;;;;6164573;23;20067;-71
2021/11/24 09:59:23;;;;;;;2.30;1.10;;;20.60;61.50;;;;;;6189506;23;20344;-72
2021/11/24 10:01:49;;;;;;;2.30;0.95;;;20.60;61.50;;;;;;6215080;23;20015;-71
2021/11/24 10:04:14;;;;;;;1.38;0.80;;;20.60;61.50;;;;;;6215733;23;20341;-71
2021/11/24 10:06:40;;;;;;;0.60;0.60;;;20.60;61.50;;;;;;6164349;23;20004;-71
2021/11/24 10:09:07;;;;;;;1.98;0.80;;;20.60;61.40;;;;;;6164647;23;20060;-71
2021/11/24 10:11:32;;;;;;;1.92;0.93;;;20.50;61.40;;;;;;6215675;23;20016;-71
2021/11/24 10:14:01;;;;;;;2.67;1.10;;;20.60;61.40;;;;;;6215801;23;20318;-71
2021/11/24 10:16:29;;;;;;;1.48;0.80;;;20.60;61.40;;;;;;6164186;23;20340;-71
2021/11/24 10:18:57;;;;;;;1.73;0.77;;;20.60;61.40;;;;;;6189088;23;20005;-71
2021/11/24 10:21:22;;;;;;;1.67;0.70;;;20.50;61.30;;;;;;6164847;23;20000;-71
2021/11/24 10:23:48;;;;;;;1.55;0.90;;;20.60;61.30;;;;;;6164077;23;20004;-71
2021/11/24 10:26:35;;;;;;;1.88;0.80;;;20.60;61.30;;;;;;6189053;23;20063;-71
2021/11/24 10:29:11;;;;;;;2.05;0.93;;;20.60;61.20;;;;;;6215367;23;20007;-71
2021/11/24 10:31:42;;;;;;;2.50;0.73;;;20.60;61.30;;;;;;6188543;23;20475;-71
2021/11/24 10:34:34;;;;;;;0.98;0.60;;;20.60;61.20;;;;;;6164731;23;20032;-71
2021/11/24 10:37:12;;;;;;;0.70;0.70;;;20.60;61.20;;;;;;6192550;23;20063;-71
2021/11/24 10:39:40;;;;;;;0.70;0.60;;;20.60;61.20;;;;;;6189123;23;20000;-71
2021/11/24 10:42:13;;;;;;;1.65;0.68;;;20.50;61.20;;;;;;6189158;23;20330;-71
2021/11/24 10:44:39;;;;;;;1.63;0.90;;;20.50;61.10;;;;;;6188494;23;20008;-71
2021/11/24 10:47:07;;;;;;;2.90;0.77;;;20.50;61.20;;;;;;6164259;23;20040;-71
2021/11/24 10:49:42;;;;;;;1.90;0.80;;;20.50;61.20;;;;;;6189396;23;20340;-71
2021/11/24 10:52:36;;;;;;;0.73;0.50;;;20.60;61.10;;;;;;6215459;23;20076;-71
2021/11/24 10:55:07;;;;;;;0.90;0.60;;;20.60;60.90;;;;;;6184802;23;20062;-71
2021/11/24 10:57:35;;;;;;;0.82;0.75;;;20.50;61.10;;;;;;6189773;23;20516;-71
2021/11/24 11:00:15;;;;;;;1.10;0.70;;;20.50;61.00;;;;;;6214970;23;20005;-71
2021/11/24 11:02:46;;;;;;;1.88;0.63;;;20.60;61.00;;;;;;6165713;23;20587;-71
2021/11/24 11:05:15;;;;;;;0.82;0.68;;;20.50;61.00;;;;;;6188947;23;20004;-72
2021/11/24 11:07:53;;;;;;;1.48;0.60;;;20.50;62.00;;;;;;6189368;23;20001;-72
2021/11/24 11:10:23;;;;;;;0.75;0.63;;;20.60;61.00;;;;;;6215299;23;20001;-71
2021/11/24 11:12:52;;;;;;;1.33;0.80;;;20.50;61.00;;;;;;6164509;23;20059;-71
2021/11/24 11:15:28;;;;;;;1.02;0.65;;;20.50;60.90;;;;;;6188816;23;20007;-72
2021/11/24 11:17:58;;;;;;;1.08;0.80;;;20.50;60.80;;;;;;6188577;23;20008;-72
2021/11/24 11:20:28;;;;;;;0.80;0.73;;;20.50;61.00;;;;;;6188636;23;20009;-72
2021/11/24 11:23:07;;;;;;;1.13;0.60;;;20.50;60.90;;;;;;6189476;23;20000;-71
2021/11/24 11:25:32;;;;;;;1.10;0.50;;;20.50;60.80;;;;;;6166610;23;20011;-71
2021/11/24 11:27:59;;;;;;;0.80;0.50;;;20.50;60.80;;;;;;6214236;23;20080;-72
2021/11/24 11:30:25;;;;;;;0.90;0.60;;;20.50;60.80;;;;;;6214988;23;20344;-72
2021/11/24 11:32:51;;;;;;;1.83;0.68;;;20.50;60.80;;;;;;6163691;23;20031;-71
2021/11/24 11:35:16;;;;;;;0.50;0.50;;;20.50;60.70;;;;;;6188609;23;20467;-71
2021/11/24 11:37:42;;;;;;;1.25;0.60;;;20.50;60.70;;;;;;6188339;23;20007;-71
2021/11/24 11:40:11;;;;;;;1.17;0.70;;;20.50;60.70;;;;;;6163907;23;20001;-71
2021/11/24 11:42:37;;;;;;;1.38;0.50;;;20.50;60.70;;;;;;6163946;23;20000;-71
2021/11/24 11:45:13;;;;;;;1.45;0.63;;;20.50;60.70;;;;;;6163842;23;20011;-71
2021/11/24 11:47:56;;;;;;;0.80;0.57;;;20.50;60.60;;;;;;6214686;23;20444;-71
2021/11/24 11:50:37;;;;;;;0.80;0.57;;;20.50;60.70;;;;;;6165726;23;20345;-71
2021/11/24 11:53:10;;;;;;;0.98;0.55;;;20.60;60.60;;;;;;6214603;23;19996;-71
2021/11/24 11:55:36;;;;;;;0.65;0.63;;;20.50;60.60;;;;;;6188363;23;20004;-71
2021/11/24 11:58:01;;;;;;;0.60;0.60;;;20.50;60.60;;;;;;6187980;23;20456;-71
2021/11/24 12:00:33;;;;;;;0.47;0.47;;;20.50;60.60;;;;;;6163612;23;20024;-71
2021/11/24 12:02:59;;;;;;;0.57;0.50;;;20.50;60.60;;;;;;6214524;23;20004;-71
2021/11/24 12:05:24;;;;;;;0.85;0.50;;;20.50;60.60;;;;;;6163589;23;20405;-71
2021/11/24 12:08:09;;;;;;;0.52;0.38;;;20.50;60.50;;;;;;6214520;23;20000;-71
2021/11/24 12:11:03;;;;;;;0.68;0.50;;;20.60;60.40;;;;;;6188366;23;20007;-71
2021/11/24 12:13:31;;;;;;;0.57;0.47;;;20.60;60.40;;;;;;6214470;23;20340;-71
2021/11/24 12:15:56;;;;;;;0.80;0.60;;;20.50;60.60;;;;;;6188363;23;20040;-71
2021/11/24 12:18:22;;;;;;;0.50;0.50;;;20.50;60.50;;;;;;6163492;23;20432;-71
2021/11/24 12:20:48;;;;;;;1.13;0.40;;;20.60;60.60;;;;;;6214348;23;20444;-71
2021/11/24 12:23:14;;;;;;;0.90;0.50;;;20.50;60.50;;;;;;6163372;23;20032;-71
2021/11/24 12:25:41;;;;;;;0.60;0.40;;;20.50;60.50;;;;;;6214411;23;20004;-71
2021/11/24 12:28:12;;;;;;;0.60;0.50;;;20.60;60.50;;;;;;6138234;23;20395;-71
2021/11/24 12:30:42;;;;;;;0.80;0.50;;;20.60;60.50;;;;;;6164706;23;20004;-71
2021/11/24 12:33:18;;;;;;;0.50;0.50;;;20.60;60.50;;;;;;6214324;23;20068;-71
2021/11/24 12:35:48;;;;;;;0.85;0.57;;;20.60;60.40;;;;;;6189366;23;20004;-71
2021/11/24 12:38:14;;;;;;;0.43;0.40;;;20.60;60.40;;;;;;6163474;23;20005;-71
2021/11/24 12:40:42;;;;;;;0.40;0.30;;;20.60;60.40;;;;;;6187799;23;20079;-71
2021/11/24 12:43:15;;;;;;;0.52;0.47;;;20.60;60.40;;;;;;6188116;23;20001;-71
2021/11/24 12:46:00;;;;;;;0.52;0.40;;;20.60;60.40;;;;;;6189326;23;20486;-71
2021/11/24 12:48:34;;;;;;;0.52;0.40;;;20.50;60.30;;;;;;6187778;23;20005;-71